Time,TemperatureF,DewpointF,PressureIn,WindDirection,WindDirectionDegrees,WindSpeedMPH,WindSpeedGustMPH,Humidity,HourlyPrecipIn,Conditions,Clouds,dailyrainin,SolarRadiationWatts/m^2,SoftwareType,DateUTC
2013-02-22 00:01:00,30.0,21.0,-100.00,SSW,213,14.0,24.0,70,0.00,,,0.00,0.000000,,2013-02-22 08:01:00,
2013-02-22 00:11:00,30.0,21.0,-100.00,SSW,213,14.0,24.0,70,0.00,,,0.00,0.000000,,2013-02-22 08:11:00,
2013-02-22 00:32:00,30.0,22.0,-100.00,SSW,210,13.0,21.0,72,0.00,,,0.00,0.000000,,2013-02-22 08:32:00,
2013-02-22 00:42:00,30.0,22.0,-100.00,SSW,210,13.0,21.0,72,0.00,,,0.00,0.000000,,2013-02-22 08:42:00,
2013-02-22 00:52:00,30.0,22.0,-100.00,SSW,210,13.0,21.0,72,0.00,,,0.00,0.000000,,2013-02-22 08:52:00,
2013-02-22 01:03:00,30.0,22.0,-100.00,SSW,210,13.0,21.0,72,0.00,,,0.00,0.000000,,2013-02-22 09:03:00,
2013-02-22 01:11:00,30.0,22.0,-100.00,SSW,210,13.0,21.0,72,0.00,,,0.00,0.000000,,2013-02-22 09:11:00,
2013-02-22 01:32:00,30.0,22.0,-100.00,SSE,154,7.0,16.0,72,0.00,,,0.00,0.000000,,2013-02-22 09:32:00,
2013-02-22 01:42:00,30.0,22.0,-100.00,SSE,154,7.0,16.0,72,0.00,,,0.00,0.000000,,2013-02-22 09:42:00,
2013-02-22 01:52:00,30.0,22.0,-100.00,SSE,154,7.0,16.0,72,0.00,,,0.00,0.000000,,2013-02-22 09:52:00,
2013-02-22 02:01:00,30.0,22.0,-100.00,SSE,154,7.0,16.0,72,0.00,,,0.00,0.000000,,2013-02-22 10:01:00,
2013-02-22 02:11:00,30.0,22.0,-100.00,SSE,154,7.0,16.0,72,0.00,,,0.00,0.000000,,2013-02-22 10:11:00,
2013-02-22 02:42:00,31.0,23.0,-100.00,South,185,9.0,16.0,71,0.00,,,0.00,0.000000,,2013-02-22 10:42:00,
2013-02-22 02:52:00,31.0,23.0,-100.00,South,185,9.0,16.0,71,0.00,,,0.00,0.000000,,2013-02-22 10:52:00,
2013-02-22 03:01:00,31.0,23.0,-100.00,South,185,9.0,16.0,71,0.00,,,0.00,0.000000,,2013-02-22 11:01:00,
2013-02-22 03:11:00,31.0,23.0,-100.00,South,185,9.0,16.0,71,0.00,,,0.00,0.000000,,2013-02-22 11:11:00,
2013-02-22 03:32:00,31.0,23.0,-100.00,SSW,197,9.0,20.0,71,0.00,,,0.00,0.000000,,2013-02-22 11:32:00,
2013-02-22 03:42:00,31.0,23.0,-100.00,SSW,197,9.0,20.0,71,0.00,,,0.00,0.000000,,2013-02-22 11:42:00,
2013-02-22 03:52:00,31.0,23.0,-100.00,SSW,197,9.0,20.0,71,0.00,,,0.00,0.000000,,2013-02-22 11:52:00,
2013-02-22 04:02:00,31.0,23.0,-100.00,SSW,197,9.0,20.0,71,0.00,,,0.00,0.000000,,2013-02-22 12:02:00,
2013-02-22 04:11:00,31.0,23.0,-100.00,SSW,197,9.0,20.0,71,0.00,,,0.00,0.000000,,2013-02-22 12:11:00,
2013-02-22 04:32:00,30.0,21.0,-100.00,SSW,193,6.0,18.0,70,0.00,,,0.00,0.000000,,2013-02-22 12:32:00,
2013-02-22 04:42:00,30.0,21.0,-100.00,SSW,193,6.0,18.0,70,0.00,,,0.00,0.000000,,2013-02-22 12:42:00,
2013-02-22 04:52:00,30.0,21.0,-100.00,SSW,193,6.0,18.0,70,0.00,,,0.00,0.000000,,2013-02-22 12:52:00,
2013-02-22 05:01:00,30.0,21.0,-100.00,SSW,193,6.0,18.0,70,0.00,,,0.00,0.000000,,2013-02-22 13:01:00,
2013-02-22 05:11:00,30.0,21.0,-100.00,SSW,193,6.0,18.0,70,0.00,,,0.00,0.000000,,2013-02-22 13:11:00,
2013-02-22 05:42:00,31.0,22.0,-100.00,SSE,150,5.0,11.0,70,0.00,,,-99.99,0.000000,,2013-02-22 13:42:00,
2013-02-22 05:52:00,31.0,22.0,-100.00,SSE,150,5.0,11.0,70,0.00,,,-99.99,0.000000,,2013-02-22 13:52:00,
2013-02-22 06:01:00,31.0,22.0,-100.00,SSE,150,5.0,11.0,70,0.00,,,-99.99,0.000000,,2013-02-22 14:01:00,
2013-02-22 06:11:00,31.0,22.0,-100.00,SSE,150,5.0,11.0,70,0.00,,,-99.99,0.000000,,2013-02-22 14:11:00,
2013-02-22 06:32:00,31.0,22.0,-100.00,SSW,195,15.0,22.0,69,0.00,,,0.00,0.000000,,2013-02-22 14:32:00,
2013-02-22 06:42:00,31.0,22.0,-100.00,SSW,195,15.0,22.0,69,0.00,,,0.00,0.000000,,2013-02-22 14:42:00,
2013-02-22 06:53:00,31.0,22.0,-100.00,SSW,195,15.0,22.0,69,0.00,,,0.00,0.000000,,2013-02-22 14:53:00,
2013-02-22 07:01:00,31.0,22.0,-100.00,SSW,195,15.0,22.0,69,0.00,,,0.00,0.000000,,2013-02-22 15:01:00,
2013-02-22 07:11:00,31.0,22.0,-100.00,SSW,195,15.0,22.0,69,0.00,,,0.00,0.000000,,2013-02-22 15:11:00,
2013-02-22 07:32:00,33.0,24.0,-100.00,SSW,203,20.0,26.0,68,0.00,,,0.00,1.000000,,2013-02-22 15:32:00,
2013-02-22 07:42:00,33.0,24.0,-100.00,SSW,203,20.0,26.0,68,0.00,,,0.00,1.000000,,2013-02-22 15:42:00,
2013-02-22 07:52:00,33.0,24.0,-100.00,SSW,203,20.0,26.0,68,0.00,,,0.00,1.000000,,2013-02-22 15:52:00,
2013-02-22 08:01:00,33.0,24.0,-100.00,SSW,203,20.0,26.0,68,0.00,,,0.00,1.000000,,2013-02-22 16:01:00,
2013-02-22 08:11:00,33.0,24.0,-100.00,SSW,203,20.0,26.0,68,0.00,,,0.00,1.000000,,2013-02-22 16:11:00,
2013-02-22 08:32:00,32.0,22.0,-100.00,SSE,151,19.0,29.0,66,0.00,,,0.00,36.000000,,2013-02-22 16:32:00,
2013-02-22 08:42:00,32.0,22.0,-100.00,SSE,151,19.0,29.0,66,0.00,,,0.00,36.000000,,2013-02-22 16:42:00,
2013-02-22 08:52:00,32.0,22.0,-100.00,SSE,151,19.0,29.0,66,0.00,,,0.00,36.000000,,2013-02-22 16:52:00,
2013-02-22 09:01:00,32.0,22.0,-100.00,SSE,151,19.0,29.0,66,0.00,,,0.00,36.000000,,2013-02-22 17:01:00,
2013-02-22 09:11:00,32.0,22.0,-100.00,SSE,151,19.0,29.0,66,0.00,,,0.00,36.000000,,2013-02-22 17:11:00,
2013-02-22 09:42:00,32.0,23.0,-100.00,SSE,159,15.0,29.0,70,0.00,,,0.00,64.000000,,2013-02-22 17:42:00,
2013-02-22 09:52:00,32.0,23.0,-100.00,SSE,159,15.0,29.0,70,0.00,,,0.00,64.000000,,2013-02-22 17:52:00,
2013-02-22 10:01:00,32.0,23.0,-100.00,SSE,159,15.0,29.0,70,0.00,,,0.00,64.000000,,2013-02-22 18:01:00,
2013-02-22 10:11:00,32.0,23.0,-100.00,SSE,159,15.0,29.0,70,0.00,,,0.00,64.000000,,2013-02-22 18:11:00,
2013-02-22 10:32:00,33.0,23.0,-100.00,SSE,152,15.0,27.0,66,0.00,,,-99.99,80.000000,,2013-02-22 18:32:00,
2013-02-22 10:42:00,33.0,23.0,-100.00,SSE,152,15.0,27.0,66,0.00,,,-99.99,80.000000,,2013-02-22 18:42:00,
2013-02-22 10:52:00,33.0,23.0,-100.00,SSE,152,15.0,27.0,66,0.00,,,-99.99,80.000000,,2013-02-22 18:52:00,
2013-02-22 11:01:00,33.0,23.0,-100.00,SSE,152,15.0,27.0,66,0.00,,,-99.99,80.000000,,2013-02-22 19:01:00,
2013-02-22 11:11:00,33.0,23.0,-100.00,SSE,152,15.0,27.0,66,0.00,,,-99.99,80.000000,,2013-02-22 19:11:00,
2013-02-22 11:31:00,33.0,27.0,-100.00,SE,145,17.0,25.0,78,0.00,,,0.00,116.000000,,2013-02-22 19:31:00,
2013-02-22 11:42:00,33.0,27.0,-100.00,SE,145,17.0,25.0,78,0.00,,,0.00,116.000000,,2013-02-22 19:42:00,
2013-02-22 11:52:00,33.0,27.0,-100.00,SE,145,17.0,25.0,78,0.00,,,0.00,116.000000,,2013-02-22 19:52:00,
2013-02-22 12:01:00,33.0,27.0,-100.00,SE,145,17.0,25.0,78,0.00,,,0.00,116.000000,,2013-02-22 20:01:00,
2013-02-22 12:11:00,33.0,27.0,-100.00,SE,145,17.0,25.0,78,0.00,,,0.00,116.000000,,2013-02-22 20:11:00,
2013-02-22 12:42:00,36.0,26.0,-100.00,SSE,151,12.0,23.0,68,0.00,,,0.00,171.000000,,2013-02-22 20:42:00,
2013-02-22 12:52:00,36.0,26.0,-100.00,SSE,151,12.0,23.0,68,0.00,,,0.00,171.000000,,2013-02-22 20:52:00,
2013-02-22 13:01:00,36.0,26.0,-100.00,SSE,151,12.0,23.0,68,0.00,,,0.00,171.000000,,2013-02-22 21:01:00,
2013-02-22 13:11:00,36.0,26.0,-100.00,SSE,151,12.0,23.0,68,0.00,,,0.00,171.000000,,2013-02-22 21:11:00,
2013-02-22 13:42:00,36.0,26.0,-100.00,SSE,167,12.0,20.0,66,0.00,,,0.00,130.000000,,2013-02-22 21:42:00,
2013-02-22 13:52:00,36.0,26.0,-100.00,SSE,167,12.0,20.0,66,0.00,,,0.00,130.000000,,2013-02-22 21:52:00,
2013-02-22 14:01:00,36.0,26.0,-100.00,SSE,167,12.0,20.0,66,0.00,,,0.00,130.000000,,2013-02-22 22:01:00,
2013-02-22 14:11:00,36.0,26.0,-100.00,SSE,167,12.0,20.0,66,0.00,,,0.00,130.000000,,2013-02-22 22:11:00,
2013-02-22 14:42:00,35.0,30.0,-100.00,South,182,12.0,22.0,82,0.00,,,0.00,74.000000,,2013-02-22 22:42:00,
2013-02-22 14:52:00,35.0,30.0,-100.00,South,182,12.0,22.0,82,0.00,,,0.00,74.000000,,2013-02-22 22:52:00,
2013-02-22 15:01:00,35.0,30.0,-100.00,South,182,12.0,22.0,82,0.00,,,0.00,74.000000,,2013-02-22 23:01:00,
2013-02-22 15:11:00,35.0,30.0,-100.00,South,182,12.0,22.0,82,0.00,,,0.00,74.000000,,2013-02-22 23:11:00,
2013-02-22 15:42:00,35.0,29.0,-100.00,SSW,209,15.0,26.0,80,0.02,,,0.02,45.000000,,2013-02-22 23:42:00,
2013-02-22 15:52:00,35.0,29.0,-100.00,SSW,209,15.0,26.0,80,0.02,,,0.02,45.000000,,2013-02-22 23:52:00,
2013-02-22 16:01:00,35.0,29.0,-100.00,SSW,209,15.0,26.0,80,0.02,,,0.02,45.000000,,2013-02-23 00:01:00,
2013-02-22 16:11:00,35.0,29.0,-100.00,SSW,209,15.0,26.0,80,0.02,,,0.02,45.000000,,2013-02-23 00:11:00,
2013-02-22 16:32:00,35.0,31.0,-100.00,SSW,201,22.0,34.0,84,0.05,,,0.07,40.000000,,2013-02-23 00:32:00,
2013-02-22 16:42:00,35.0,31.0,-100.00,SSW,201,22.0,34.0,84,0.05,,,0.07,40.000000,,2013-02-23 00:42:00,
2013-02-22 16:52:00,35.0,31.0,-100.00,SSW,201,22.0,34.0,84,0.05,,,0.07,40.000000,,2013-02-23 00:52:00,
2013-02-22 17:01:00,35.0,31.0,-100.00,SSW,201,22.0,34.0,84,0.05,,,0.07,40.000000,,2013-02-23 01:01:00,
2013-02-22 17:11:00,35.0,31.0,-100.00,SSW,201,22.0,34.0,84,0.05,,,0.07,40.000000,,2013-02-23 01:11:00,
2013-02-22 17:32:00,35.0,31.0,-100.00,SSW,192,15.0,30.0,85,0.00,,,0.07,47.000000,,2013-02-23 01:32:00,
2013-02-22 17:42:00,35.0,31.0,-100.00,SSW,192,15.0,30.0,85,0.00,,,0.07,47.000000,,2013-02-23 01:42:00,
2013-02-22 17:52:00,35.0,31.0,-100.00,SSW,192,15.0,30.0,85,0.00,,,0.07,47.000000,,2013-02-23 01:52:00,
2013-02-22 18:01:00,35.0,31.0,-100.00,SSW,192,15.0,30.0,85,0.00,,,0.07,47.000000,,2013-02-23 02:01:00,
2013-02-22 18:11:00,35.0,31.0,-100.00,SSW,192,15.0,30.0,85,0.00,,,0.07,47.000000,,2013-02-23 02:11:00,
2013-02-22 18:32:00,35.0,30.0,-100.00,SSW,193,12.0,24.0,83,0.00,,,0.07,7.000000,,2013-02-23 02:32:00,
2013-02-22 18:42:00,35.0,30.0,-100.00,SSW,193,12.0,24.0,83,0.00,,,0.07,7.000000,,2013-02-23 02:42:00,
2013-02-22 18:52:00,35.0,30.0,-100.00,SSW,193,12.0,24.0,83,0.00,,,0.07,7.000000,,2013-02-23 02:52:00,
2013-02-22 19:01:00,35.0,30.0,-100.00,SSW,193,12.0,24.0,83,0.00,,,0.07,7.000000,,2013-02-23 03:01:00,
2013-02-22 19:11:00,35.0,30.0,-100.00,SSW,193,12.0,24.0,83,0.00,,,0.07,7.000000,,2013-02-23 03:11:00,
2013-02-22 19:32:00,36.0,27.0,-100.00,SW,223,19.0,35.0,70,0.00,,,0.07,0.000000,,2013-02-23 03:32:00,
2013-02-22 19:42:00,36.0,27.0,-100.00,SW,223,19.0,35.0,70,0.00,,,0.07,0.000000,,2013-02-23 03:42:00,
2013-02-22 19:52:00,36.0,27.0,-100.00,SW,223,19.0,35.0,70,0.00,,,0.07,0.000000,,2013-02-23 03:52:00,
2013-02-22 20:01:00,36.0,27.0,-100.00,SW,223,19.0,35.0,70,0.00,,,0.07,0.000000,,2013-02-23 04:01:00,
2013-02-22 20:11:00,36.0,27.0,-100.00,SW,223,19.0,35.0,70,0.00,,,0.07,0.000000,,2013-02-23 04:11:00,
2013-02-22 20:32:00,31.0,26.0,-100.00,WSW,242,17.0,34.0,80,0.00,,,0.07,0.000000,,2013-02-23 04:32:00,
2013-02-22 20:42:00,31.0,26.0,-100.00,WSW,242,17.0,34.0,80,0.00,,,0.07,0.000000,,2013-02-23 04:42:00,
2013-02-22 20:52:00,31.0,26.0,-100.00,WSW,242,17.0,34.0,80,0.00,,,0.07,0.000000,,2013-02-23 04:52:00,
2013-02-22 21:01:00,31.0,26.0,-100.00,WSW,242,17.0,34.0,80,0.00,,,0.07,0.000000,,2013-02-23 05:01:00,
2013-02-22 21:11:00,31.0,26.0,-100.00,WSW,242,17.0,34.0,80,0.00,,,0.07,0.000000,,2013-02-23 05:11:00,
2013-02-22 21:42:00,31.0,24.0,-100.00,SW,229,14.0,29.0,76,0.00,,,0.07,0.000000,,2013-02-23 05:42:00,
2013-02-22 21:52:00,31.0,24.0,-100.00,SW,229,14.0,29.0,76,0.00,,,0.07,0.000000,,2013-02-23 05:52:00,
2013-02-22 22:01:00,31.0,24.0,-100.00,SW,229,14.0,29.0,76,0.00,,,0.07,0.000000,,2013-02-23 06:01:00,
2013-02-22 22:11:00,31.0,24.0,-100.00,SW,229,14.0,29.0,76,0.00,,,0.07,0.000000,,2013-02-23 06:11:00,
2013-02-22 22:32:00,28.0,25.0,-100.00,WSW,254,19.0,35.0,88,0.00,,,0.07,0.000000,,2013-02-23 06:32:00,
2013-02-22 22:42:00,28.0,25.0,-100.00,WSW,254,19.0,35.0,88,0.00,,,0.07,0.000000,,2013-02-23 06:42:00,
2013-02-22 22:52:00,28.0,25.0,-100.00,WSW,254,19.0,35.0,88,0.00,,,0.07,0.000000,,2013-02-23 06:52:00,
2013-02-22 23:01:00,28.0,25.0,-100.00,WSW,254,19.0,35.0,88,0.00,,,0.07,0.000000,,2013-02-23 07:01:00,
2013-02-22 23:11:00,28.0,25.0,-100.00,WSW,254,19.0,35.0,88,0.00,,,0.07,0.000000,,2013-02-23 07:11:00,
2013-02-22 23:32:00,26.0,21.0,-100.00,WSW,240,14.0,29.0,80,0.00,,,0.07,0.000000,,2013-02-23 07:32:00,
2013-02-22 23:42:00,26.0,21.0,-100.00,WSW,240,14.0,29.0,80,0.00,,,0.07,0.000000,,2013-02-23 07:42:00,
2013-02-22 23:52:00,26.0,21.0,-100.00,WSW,240,14.0,29.0,80,0.00,,,0.07,0.000000,,2013-02-23 07:52:00,